createdAt,value
2023-03-23T15:58:57.845Z,33.70
2023-03-23T16:01:26.455Z,33.90
2023-03-23T16:03:53.454Z,33.70
2023-03-23T16:06:25.324Z,33.80
2023-03-23T16:08:55.149Z,34.10
2023-03-23T16:11:22.515Z,34.20
2023-03-23T16:13:49.297Z,34.50
2023-03-23T16:16:24.328Z,34.50
2023-03-23T16:18:51.100Z,34.70
2023-03-23T16:21:17.967Z,34.80
2023-03-23T16:23:46.493Z,34.70
2023-03-23T16:26:14.573Z,34.60
2023-03-23T16:28:41.910Z,34.60
2023-03-23T16:31:08.789Z,34.80
2023-03-23T16:33:35.621Z,35.20
2023-03-23T16:36:02.964Z,35.40
2023-03-23T16:38:29.774Z,35.80
2023-03-23T16:40:56.505Z,36.00
2023-03-23T16:43:23.297Z,36.30
2023-03-23T16:45:50.491Z,37.50
2023-03-23T16:48:17.342Z,38.10
2023-03-23T16:50:44.581Z,38.50
2023-03-23T16:53:11.802Z,39.00
2023-03-23T16:55:39.014Z,39.50
2023-03-23T16:58:16.492Z,39.90
2023-03-23T17:00:45.014Z,40.40
2023-03-23T17:03:13.302Z,40.90
2023-03-23T17:05:40.851Z,41.90
2023-03-23T17:08:07.790Z,42.10
2023-03-23T17:10:34.591Z,42.80
2023-03-23T17:13:01.824Z,43.40
2023-03-23T17:15:28.678Z,44.10
2023-03-23T17:17:55.575Z,44.60
2023-03-23T17:20:22.673Z,45.10
2023-03-23T17:22:49.491Z,45.50
2023-03-23T17:25:16.461Z,45.20
2023-03-23T17:27:43.309Z,45.00
2023-03-23T17:30:10.919Z,45.10
2023-03-23T17:32:37.883Z,45.30
2023-03-23T17:35:05.540Z,45.70
2023-03-23T17:37:32.642Z,46.00
2023-03-23T17:39:59.425Z,46.70
2023-03-23T17:42:26.993Z,47.00
2023-03-23T17:44:53.953Z,47.00
2023-03-23T17:47:21.002Z,47.60
2023-03-23T17:49:48.098Z,47.80
2023-03-23T17:52:15.025Z,47.80
2023-03-23T17:54:42.073Z,47.80
2023-03-23T17:57:09.154Z,47.90
2023-03-23T17:59:36.360Z,48.20
2023-03-23T18:02:03.492Z,48.40
2023-03-23T18:04:30.675Z,48.60
2023-03-23T18:06:57.846Z,49.20
2023-03-23T18:09:25.248Z,49.50
2023-03-23T18:11:52.162Z,50.10
2023-03-23T18:14:19.108Z,50.40
2023-03-23T18:16:46.239Z,50.50
2023-03-23T18:19:13.101Z,50.90
2023-03-23T18:21:39.904Z,51.80
2023-03-23T18:24:07.956Z,51.40
2023-03-23T18:26:34.853Z,51.80
2023-03-23T18:29:01.726Z,51.70
2023-03-23T18:31:28.865Z,51.80
2023-03-23T18:33:55.785Z,52.60
2023-03-23T18:36:24.980Z,52.40
2023-03-23T18:38:53.931Z,52.80
2023-03-23T18:41:20.880Z,53.20
2023-03-23T18:43:47.905Z,53.40
2023-03-23T18:46:14.879Z,53.60
2023-03-23T18:48:41.708Z,54.00
2023-03-23T18:51:09.547Z,53.80
2023-03-23T18:53:36.310Z,53.80
2023-03-23T18:56:13.920Z,53.90
2023-03-23T18:58:41.009Z,54.10
2023-03-23T19:01:10.456Z,54.20
2023-03-23T19:03:37.731Z,53.90
2023-03-23T19:06:04.900Z,53.90
2023-03-23T19:08:31.855Z,54.20
2023-03-23T19:11:01.005Z,54.30
2023-03-23T19:13:31.566Z,54.30
2023-03-23T19:15:58.466Z,54.60
2023-03-23T19:18:25.698Z,54.70
2023-03-23T19:21:13.727Z,54.80
2023-03-23T19:23:41.460Z,55.00
2023-03-23T19:26:08.403Z,55.20
2023-03-23T19:31:05.548Z,55.00
2023-03-23T19:33:32.335Z,55.20
2023-03-23T19:36:09.087Z,55.60
2023-03-23T19:38:38.394Z,56.00
2023-03-23T19:41:06.392Z,56.00
2023-03-23T19:43:33.785Z,56.50
2023-03-23T19:46:00.833Z,56.40
2023-03-23T19:48:28.792Z,56.50
2023-03-23T19:50:56.319Z,57.30
2023-03-23T19:53:23.542Z,57.20
2023-03-23T19:55:50.499Z,57.20
2023-03-23T19:58:17.539Z,57.30
2023-03-23T20:00:45.259Z,56.60
2023-03-23T20:03:12.655Z,56.30
2023-03-23T20:05:40.729Z,56.60
2023-03-23T20:08:09.120Z,56.70
2023-03-23T20:10:36.386Z,56.90
2023-03-23T20:13:04.378Z,57.00
2023-03-23T20:15:32.027Z,56.90
2023-03-23T20:17:59.198Z,56.80
2023-03-23T20:20:26.509Z,56.80
2023-03-23T20:22:54.511Z,57.20
2023-03-23T20:25:23.426Z,56.80
2023-03-23T20:27:50.645Z,56.60
2023-03-23T20:30:18.793Z,56.70
2023-03-23T20:32:46.604Z,56.90
2023-03-23T20:35:14.848Z,57.10
2023-03-23T20:37:42.139Z,57.30
2023-03-23T20:40:11.668Z,57.80
2023-03-23T20:42:38.887Z,57.70
2023-03-23T20:45:06.306Z,58.00
2023-03-23T20:47:33.201Z,58.10
2023-03-23T20:50:00.210Z,58.20
2023-03-23T20:52:27.049Z,58.50
2023-03-23T20:54:54.886Z,58.70
2023-03-23T20:57:22.465Z,58.70
2023-03-23T20:59:50.809Z,58.60
2023-03-23T21:02:18.319Z,58.70
2023-03-23T21:04:45.283Z,59.00
2023-03-23T21:07:13.142Z,58.70
2023-03-23T21:09:41.046Z,58.60
2023-03-23T21:12:09.273Z,58.80
2023-03-23T21:14:37.278Z,59.00
2023-03-23T21:17:04.855Z,59.10
2023-03-23T21:19:32.540Z,59.20
2023-03-23T21:21:59.815Z,59.50
2023-03-23T21:24:28.384Z,59.50
2023-03-23T21:26:56.756Z,59.50
2023-03-23T21:29:24.412Z,59.60
2023-03-23T21:31:57.780Z,59.70
2023-03-23T21:34:32.033Z,59.60
2023-03-23T21:36:58.991Z,59.50
2023-03-23T21:39:26.342Z,59.40
2023-03-23T21:41:53.175Z,59.30
2023-03-23T21:44:20.144Z,59.40
2023-03-23T21:46:46.944Z,59.70
2023-03-23T21:49:14.404Z,59.90
2023-03-23T21:51:41.714Z,60.20
2023-03-23T21:54:09.206Z,60.60
2023-03-23T21:56:36.843Z,60.90
2023-03-23T21:59:04.707Z,60.80
2023-03-23T22:01:31.656Z,60.50
2023-03-23T22:03:58.639Z,60.40
2023-03-23T22:06:28.559Z,60.50
2023-03-23T22:08:55.974Z,60.60
2023-03-23T22:11:27.072Z,60.80
2023-03-23T22:13:54.689Z,60.90
2023-03-23T22:16:21.847Z,61.30
2023-03-23T22:18:49.408Z,61.20
2023-03-23T22:21:16.814Z,61.00
2023-03-23T22:23:44.352Z,60.50
2023-03-23T22:26:12.115Z,60.70
2023-03-23T22:28:39.192Z,60.60
2023-03-23T22:31:18.651Z,60.80
2023-03-23T22:33:46.156Z,61.00
2023-03-23T22:36:13.152Z,61.30
2023-03-23T22:38:41.530Z,61.50
2023-03-23T22:41:08.725Z,61.50
2023-03-23T22:43:36.055Z,61.40
2023-03-23T22:46:03.736Z,61.90
2023-03-23T22:48:30.973Z,62.50
2023-03-23T22:50:58.495Z,62.40
2023-03-23T22:53:25.957Z,62.60
2023-03-23T22:55:54.535Z,62.40
2023-03-23T22:58:21.367Z,62.20
2023-03-23T23:00:49.645Z,62.10
2023-03-23T23:03:16.755Z,62.20
2023-03-23T23:05:45.191Z,62.40
2023-03-23T23:08:13.515Z,62.70
2023-03-23T23:10:42.211Z,62.90
2023-03-23T23:13:09.351Z,63.20
2023-03-23T23:15:36.858Z,63.70
2023-03-23T23:18:04.958Z,63.60
2023-03-23T23:20:33.286Z,63.50
2023-03-23T23:23:01.312Z,63.50
2023-03-23T23:25:28.989Z,63.70
2023-03-23T23:27:56.364Z,63.90
2023-03-23T23:30:23.204Z,64.10
2023-03-23T23:32:52.270Z,64.40
2023-03-23T23:35:20.288Z,64.80
2023-03-23T23:37:47.644Z,64.90
2023-03-23T23:40:15.374Z,64.80
2023-03-23T23:42:43.292Z,65.00
2023-03-23T23:45:13.236Z,65.20
2023-03-23T23:47:40.550Z,65.40
2023-03-23T23:50:08.621Z,65.50
2023-03-23T23:52:36.385Z,65.70
2023-03-23T23:55:04.288Z,65.60
2023-03-23T23:57:31.426Z,65.70
2023-03-23T23:59:58.278Z,65.70
